createdAt,value
2024-03-06T00:00:50.882Z,8.02
2024-03-06T00:03:39.169Z,8.01
2024-03-06T00:06:07.779Z,7.99
2024-03-06T00:08:36.181Z,8.00
2024-03-06T00:11:04.675Z,7.99
2024-03-06T00:13:33.099Z,7.98
2024-03-06T00:16:01.402Z,7.98
2024-03-06T00:18:29.802Z,7.96
2024-03-06T00:20:58.137Z,7.96
2024-03-06T00:23:27.348Z,7.95
2024-03-06T00:25:55.849Z,7.93
2024-03-06T00:28:24.251Z,7.91
2024-03-06T00:30:52.589Z,7.89
2024-03-06T00:33:20.990Z,7.87
2024-03-06T00:35:49.418Z,7.86
2024-03-06T00:38:17.798Z,7.85
2024-03-06T00:40:46.259Z,7.83
2024-03-06T00:43:14.799Z,7.84
2024-03-06T00:45:43.844Z,7.83
2024-03-06T00:48:12.256Z,7.81
2024-03-06T00:50:40.975Z,7.79
2024-03-06T00:53:09.429Z,7.75
2024-03-06T00:55:38.217Z,7.73
2024-03-06T00:58:07.963Z,7.68
2024-03-06T01:00:36.508Z,7.65
2024-03-06T01:03:04.964Z,7.61
2024-03-06T01:05:33.750Z,7.57
2024-03-06T01:08:02.208Z,7.54
2024-03-06T01:10:30.649Z,7.48
2024-03-06T01:12:59.093Z,7.41
2024-03-06T01:15:27.455Z,7.36
2024-03-06T01:17:55.848Z,7.31
2024-03-06T01:20:24.331Z,7.25
2024-03-06T01:22:52.755Z,7.20
2024-03-06T01:25:21.924Z,7.12
2024-03-06T01:27:50.483Z,7.10
2024-03-06T01:30:18.887Z,7.03
2024-03-06T01:32:47.587Z,6.98
2024-03-06T01:35:16.244Z,6.94
2024-03-06T01:37:44.623Z,6.88
2024-03-06T01:40:13.664Z,6.84
2024-03-06T01:42:42.066Z,6.80
2024-03-06T01:45:10.901Z,6.75
2024-03-06T01:47:39.292Z,6.67
2024-03-06T01:50:10.599Z,6.61
2024-03-06T01:52:41.289Z,6.58
2024-03-06T01:55:11.574Z,6.55
2024-03-06T01:57:41.599Z,6.49
2024-03-06T02:00:14.989Z,6.45
2024-03-06T02:02:44.805Z,6.40
2024-03-06T02:05:14.083Z,6.35
2024-03-06T02:07:46.052Z,6.32
2024-03-06T02:10:14.782Z,6.30
2024-03-06T02:12:43.971Z,6.28
2024-03-06T02:15:13.896Z,6.24
2024-03-06T02:17:43.446Z,6.21
2024-03-06T02:20:13.986Z,6.18
2024-03-06T02:22:42.626Z,6.15
2024-03-06T02:25:12.288Z,6.17
2024-03-06T02:27:40.767Z,6.14
2024-03-06T02:30:09.482Z,6.09
2024-03-06T02:32:38.026Z,6.07
2024-03-06T02:35:10.104Z,6.07
2024-03-06T02:37:39.874Z,6.06
2024-03-06T02:40:11.199Z,6.06
2024-03-06T02:42:40.311Z,6.03
2024-03-06T02:45:10.056Z,5.98
2024-03-06T02:47:38.519Z,5.95
2024-03-06T02:50:08.883Z,5.91
2024-03-06T02:52:37.714Z,5.90
2024-03-06T02:55:06.794Z,5.86
2024-03-06T02:57:35.172Z,5.83
2024-03-06T03:00:05.893Z,5.80
2024-03-06T03:02:34.424Z,5.76
2024-03-06T03:05:02.951Z,5.70
2024-03-06T03:07:31.430Z,5.67
2024-03-06T03:09:59.769Z,5.65
2024-03-06T03:12:28.127Z,5.63
2024-03-06T03:14:56.529Z,5.61
2024-03-06T03:17:24.939Z,5.60
2024-03-06T03:19:53.913Z,5.59
2024-03-06T03:22:22.336Z,5.59
2024-03-06T03:24:50.709Z,5.58
2024-03-06T03:27:19.348Z,5.58
2024-03-06T03:29:47.722Z,5.57
2024-03-06T03:32:17.912Z,5.51
2024-03-06T03:34:46.445Z,5.45
2024-03-06T03:37:14.814Z,5.39
2024-03-06T03:39:45.335Z,5.34
2024-03-06T03:42:13.671Z,5.29
2024-03-06T03:44:41.993Z,5.26
2024-03-06T03:47:10.375Z,5.24
2024-03-06T03:49:38.716Z,5.25
2024-03-06T03:52:07.908Z,5.25
2024-03-06T03:54:36.548Z,5.22
2024-03-06T03:57:05.121Z,5.17
2024-03-06T03:59:33.444Z,5.10
2024-03-06T04:02:01.903Z,5.04
2024-03-06T04:04:30.546Z,5.00
2024-03-06T04:07:00.855Z,4.98
2024-03-06T04:09:29.533Z,4.97
2024-03-06T04:11:57.981Z,4.97
2024-03-06T04:14:27.930Z,4.97
2024-03-06T04:16:56.357Z,5.00
2024-03-06T04:19:24.786Z,5.02
2024-03-06T04:21:53.173Z,5.03
2024-03-06T04:24:21.603Z,5.09
2024-03-06T04:26:49.965Z,5.14
2024-03-06T04:29:18.926Z,5.17
2024-03-06T04:31:47.329Z,5.19
2024-03-06T04:34:15.938Z,5.21
2024-03-06T04:36:44.239Z,5.23
2024-03-06T04:39:13.338Z,5.27
2024-03-06T04:41:41.726Z,5.31
2024-03-06T04:44:10.059Z,5.34
2024-03-06T04:46:38.464Z,5.36
2024-03-06T04:49:06.717Z,5.39
2024-03-06T04:51:35.111Z,5.41
2024-03-06T04:54:04.623Z,5.44
2024-03-06T04:56:32.942Z,5.49
2024-03-06T04:59:04.452Z,5.52
2024-03-06T05:01:33.116Z,5.53
2024-03-06T05:59:17.719Z,6.15
2024-03-06T06:01:46.771Z,6.19
2024-03-06T06:04:15.679Z,6.24
2024-03-06T06:06:44.127Z,6.28
2024-03-06T06:09:17.362Z,6.33
2024-03-06T06:11:46.408Z,6.39
2024-03-06T06:14:15.060Z,6.42
2024-03-06T06:16:44.085Z,6.47
2024-03-06T06:19:12.600Z,6.52
2024-03-06T06:21:42.477Z,6.58
2024-03-06T06:24:10.938Z,6.65
2024-03-06T06:26:39.356Z,6.73
2024-03-06T06:29:07.799Z,6.81
2024-03-06T06:31:36.264Z,6.88
2024-03-06T06:34:04.650Z,6.94
2024-03-06T06:36:33.033Z,6.98
2024-03-06T06:39:03.961Z,7.04
2024-03-06T06:41:34.487Z,7.10
2024-03-06T06:44:04.106Z,7.13
2024-03-06T06:46:32.856Z,7.15
2024-03-06T06:49:01.320Z,7.16
2024-03-06T06:51:29.712Z,7.19
2024-03-06T06:54:00.616Z,7.24
2024-03-06T06:56:30.171Z,7.37
2024-03-06T06:58:58.673Z,7.44
2024-03-06T07:01:27.133Z,7.45
2024-03-06T07:03:55.560Z,7.45
2024-03-06T07:06:24.017Z,7.47
2024-03-06T07:08:52.438Z,7.47
2024-03-06T07:11:21.724Z,7.49
2024-03-06T07:13:52.825Z,7.51
2024-03-06T07:16:28.249Z,7.53
2024-03-06T07:18:56.599Z,7.58
2024-03-06T07:21:25.416Z,7.69
2024-03-06T07:23:53.765Z,7.96
2024-03-06T07:26:22.628Z,8.36
2024-03-06T07:28:51.049Z,8.74
2024-03-06T07:31:20.122Z,9.00
2024-03-06T07:33:53.714Z,9.17
2024-03-06T07:36:25.383Z,9.31
2024-03-06T07:38:53.797Z,9.45
2024-03-06T07:41:22.240Z,9.48
2024-03-06T07:43:50.591Z,9.49
2024-03-06T07:46:18.953Z,9.49
2024-03-06T07:48:47.462Z,9.42
2024-03-06T07:51:15.821Z,9.38
2024-03-06T07:53:44.245Z,9.32
2024-03-06T07:56:14.933Z,9.24
2024-03-06T07:58:42.241Z,9.15
2024-03-06T08:01:09.630Z,9.10
2024-03-06T08:03:54.893Z,9.10
2024-03-06T08:06:22.358Z,9.01
2024-03-06T08:08:49.927Z,8.92
2024-03-06T08:11:17.596Z,8.88
2024-03-06T08:13:45.232Z,8.84
2024-03-06T08:16:12.625Z,8.81
2024-03-06T08:18:40.022Z,8.69
2024-03-06T08:21:08.180Z,8.59
2024-03-06T08:23:35.574Z,8.58
2024-03-06T08:26:03.151Z,8.58
2024-03-06T08:28:30.470Z,8.60
2024-03-06T08:30:58.391Z,8.63
2024-03-06T08:33:26.443Z,8.61
2024-03-06T08:35:54.224Z,8.66
2024-03-06T08:38:21.727Z,8.75
2024-03-06T08:40:50.087Z,8.83
2024-03-06T08:43:18.090Z,8.92
2024-03-06T08:45:45.441Z,9.05
2024-03-06T08:48:13.072Z,9.13
2024-03-06T08:50:40.935Z,9.18
2024-03-06T08:53:10.694Z,9.20
2024-03-06T08:55:38.413Z,9.20
2024-03-06T08:58:05.853Z,9.18
2024-03-06T09:00:33.440Z,9.20
2024-03-06T09:03:01.516Z,9.22
2024-03-06T09:05:28.971Z,9.26
2024-03-06T09:08:01.333Z,9.28
2024-03-06T09:10:29.999Z,9.28
2024-03-06T09:12:57.407Z,9.28
2024-03-06T09:15:25.661Z,9.29
2024-03-06T09:17:53.319Z,9.32
2024-03-06T09:20:21.497Z,9.34
2024-03-06T09:22:49.318Z,9.29
2024-03-06T09:25:17.012Z,9.20
2024-03-06T09:27:45.070Z,9.12
2024-03-06T09:30:14.859Z,9.05
2024-03-06T09:32:43.386Z,9.03
2024-03-06T09:35:11.301Z,8.99
2024-03-06T09:37:38.665Z,8.94
2024-03-06T09:40:09.046Z,8.93
2024-03-06T09:42:36.465Z,8.94
2024-03-06T09:45:04.066Z,8.97
2024-03-06T09:47:33.981Z,8.98
2024-03-06T09:50:04.484Z,8.99
2024-03-06T09:52:33.975Z,9.02
2024-03-06T10:01:25.975Z,9.13
2024-03-06T10:03:53.656Z,9.15
2024-03-06T10:06:21.851Z,9.19
2024-03-06T10:08:50.655Z,9.25
2024-03-06T10:11:19.522Z,9.29
2024-03-06T10:13:46.913Z,9.31
2024-03-06T10:16:15.643Z,9.30
2024-03-06T10:18:43.413Z,9.24
2024-03-06T10:21:10.894Z,9.25
2024-03-06T10:23:38.795Z,9.27
2024-03-06T10:33:57.187Z,9.27
2024-03-06T10:36:28.829Z,9.29
2024-03-06T10:39:01.216Z,9.34
2024-03-06T10:41:34.216Z,9.36
2024-03-06T10:44:03.248Z,9.39
2024-03-06T10:46:32.673Z,9.39
2024-03-06T10:49:01.598Z,9.37
2024-03-06T10:51:31.224Z,9.40
2024-03-06T10:54:00.156Z,9.42
2024-03-06T10:56:27.635Z,9.44
2024-03-06T10:58:58.263Z,9.35
2024-03-06T11:01:26.150Z,9.36
2024-03-06T11:03:53.780Z,9.43
2024-03-06T11:06:21.156Z,9.49
2024-03-06T11:08:49.843Z,9.53
2024-03-06T11:11:25.239Z,9.60
2024-03-06T11:13:59.802Z,9.69
2024-03-06T11:16:35.268Z,9.75
2024-03-06T11:19:11.247Z,9.74
2024-03-06T11:21:49.110Z,9.75
2024-03-06T11:24:33.572Z,9.73
2024-03-06T11:27:03.041Z,9.69
2024-03-06T11:29:51.236Z,9.65
2024-03-06T11:32:19.438Z,9.67
2024-03-06T11:34:46.913Z,9.70
2024-03-06T11:37:14.741Z,9.72
2024-03-06T11:39:45.430Z,9.70
2024-03-06T11:42:14.920Z,9.68
2024-03-06T11:44:58.784Z,9.68
2024-03-06T11:47:26.442Z,9.67
2024-03-06T11:56:45.528Z,9.68
2024-03-06T11:59:13.089Z,9.66
2024-03-06T12:01:42.145Z,9.65
2024-03-06T12:04:09.651Z,9.66
2024-03-06T12:06:37.149Z,9.67
2024-03-06T12:09:05.105Z,9.69
2024-03-06T12:11:32.808Z,9.70
2024-03-06T12:14:00.526Z,9.72
2024-03-06T12:16:27.855Z,9.74
2024-03-06T12:18:59.225Z,9.76
2024-03-06T12:21:34.069Z,9.78
2024-03-06T12:24:11.179Z,9.78
2024-03-06T12:26:39.035Z,9.77
2024-03-06T12:29:11.257Z,9.76
2024-03-06T12:31:43.564Z,9.75
2024-03-06T12:34:18.648Z,9.72
2024-03-06T12:36:47.227Z,9.63
2024-03-06T12:39:19.518Z,9.51
2024-03-06T12:41:47.021Z,9.41
2024-03-06T12:50:38.733Z,8.91
2024-03-06T12:59:37.491Z,8.40
2024-03-06T13:02:05.389Z,8.26
2024-03-06T13:04:32.907Z,8.14
2024-03-06T13:07:00.365Z,8.05
2024-03-06T13:09:27.736Z,7.95
2024-03-06T13:11:55.842Z,7.85
2024-03-06T13:14:23.647Z,7.77
2024-03-06T13:16:51.113Z,7.67
2024-03-06T13:19:18.501Z,7.61
2024-03-06T13:21:45.821Z,7.54
2024-03-06T13:24:13.192Z,7.43
2024-03-06T13:26:41.679Z,7.35
2024-03-06T13:29:09.282Z,7.30
2024-03-06T13:31:37.452Z,7.22
2024-03-06T13:34:08.934Z,7.13
2024-03-06T13:36:36.353Z,7.02
2024-03-06T13:39:03.796Z,6.97
2024-03-06T13:41:31.213Z,6.94
2024-03-06T13:43:58.736Z,6.90
2024-03-06T13:46:26.125Z,6.89
2024-03-06T13:48:53.513Z,6.89
2024-03-06T13:51:20.964Z,6.90
2024-03-06T13:53:49.267Z,6.92
2024-03-06T13:56:16.944Z,6.95
2024-03-06T13:58:44.490Z,7.01
2024-03-06T14:01:16.776Z,7.04
2024-03-06T14:03:50.670Z,7.08
2024-03-06T14:06:23.410Z,7.08
2024-03-06T14:08:50.917Z,7.10
2024-03-06T14:11:20.175Z,7.09
2024-03-06T14:13:47.777Z,7.07
2024-03-06T14:16:15.188Z,7.04
2024-03-06T14:18:42.751Z,6.99
2024-03-06T14:21:10.565Z,6.97
2024-03-06T14:23:37.948Z,6.94
2024-03-06T14:26:05.546Z,6.92
2024-03-06T14:28:32.960Z,6.93
2024-03-06T14:31:01.392Z,6.93
2024-03-06T14:33:28.754Z,6.95
2024-03-06T14:35:56.684Z,6.95
2024-03-06T14:38:24.235Z,6.97
2024-03-06T14:40:51.678Z,7.00
2024-03-06T14:43:19.032Z,7.02
2024-03-06T14:45:47.136Z,7.03
2024-03-06T14:48:14.568Z,7.02
2024-03-06T14:50:42.157Z,7.01
2024-03-06T14:53:09.656Z,7.01
2024-03-06T14:55:37.148Z,7.03
2024-03-06T14:58:05.747Z,7.03
2024-03-06T15:00:33.222Z,7.07
2024-03-06T15:03:21.517Z,7.10
2024-03-06T15:05:49.262Z,7.11
2024-03-06T15:08:31.552Z,7.12
2024-03-06T15:10:59.119Z,7.11
2024-03-06T15:13:26.749Z,7.12
2024-03-06T15:15:55.007Z,7.14
2024-03-06T15:18:22.710Z,7.15
2024-03-06T15:20:56.516Z,7.15
2024-03-06T15:23:24.057Z,7.17
2024-03-06T15:25:52.034Z,7.21
2024-03-06T15:28:19.371Z,7.25
2024-03-06T15:30:46.829Z,7.25
2024-03-06T15:33:14.372Z,7.20
2024-03-06T15:35:42.023Z,7.18
2024-03-06T15:38:10.260Z,7.17
2024-03-06T15:40:37.665Z,7.19
2024-03-06T15:43:05.093Z,7.18
2024-03-06T15:45:32.741Z,7.12
2024-03-06T15:48:00.181Z,7.10
2024-03-06T15:50:28.061Z,7.07
2024-03-06T15:53:11.127Z,7.06
2024-03-06T15:55:39.176Z,7.04
2024-03-06T15:58:06.801Z,7.00
2024-03-06T16:00:34.288Z,6.97
2024-03-06T16:03:01.791Z,6.96
2024-03-06T16:05:29.587Z,6.93
2024-03-06T16:08:05.445Z,6.91
2024-03-06T16:10:36.037Z,6.89
2024-03-06T16:13:03.646Z,6.86
2024-03-06T16:15:31.624Z,6.83
2024-03-06T16:17:59.214Z,6.79
2024-03-06T16:20:27.160Z,6.76
2024-03-06T16:22:54.567Z,6.75
2024-03-06T16:25:22.383Z,6.73
2024-03-06T16:34:04.654Z,6.78
2024-03-06T16:36:32.145Z,6.76
2024-03-06T16:38:59.578Z,6.75
2024-03-06T16:41:27.438Z,6.74
2024-03-06T16:43:55.001Z,6.74
2024-03-06T16:46:22.368Z,6.76
2024-03-06T16:48:49.919Z,6.77
2024-03-06T16:51:21.316Z,6.78
2024-03-06T16:53:48.848Z,6.79
2024-03-06T16:56:16.429Z,6.82
2024-03-06T16:58:43.785Z,6.83
2024-03-06T17:01:11.621Z,6.82
2024-03-06T17:03:39.098Z,6.83
2024-03-06T17:06:07.846Z,6.83
2024-03-06T17:08:36.906Z,6.82
2024-03-06T17:11:05.604Z,6.83
2024-03-06T17:13:36.534Z,6.80
2024-03-06T17:16:08.990Z,6.79
2024-03-06T17:18:38.572Z,6.78
2024-03-06T17:21:10.098Z,6.76
2024-03-06T17:23:55.399Z,6.76
2024-03-06T17:26:24.084Z,6.77
2024-03-06T17:28:53.026Z,6.76
2024-03-06T17:31:21.518Z,6.74
2024-03-06T17:33:49.960Z,6.73
2024-03-06T17:36:18.746Z,6.73
2024-03-06T17:38:48.334Z,6.73
2024-03-06T17:41:18.843Z,6.74
2024-03-06T17:43:47.487Z,6.74
2024-03-06T17:46:16.066Z,6.74
2024-03-06T17:48:45.133Z,6.74
2024-03-06T17:51:16.209Z,6.76
2024-03-06T17:53:47.356Z,6.75
2024-03-06T17:56:30.449Z,6.75
2024-03-06T17:58:58.953Z,6.76
2024-03-06T18:01:27.520Z,6.77
2024-03-06T18:03:56.124Z,6.77
2024-03-06T18:06:26.046Z,6.75
2024-03-06T18:08:54.704Z,6.74
2024-03-06T18:11:23.332Z,6.73
2024-03-06T18:13:51.881Z,6.74
2024-03-06T18:16:20.237Z,6.74
2024-03-06T18:18:48.685Z,6.72
2024-03-06T18:21:17.164Z,6.72
2024-03-06T18:23:45.641Z,6.74
2024-03-06T18:26:14.161Z,6.75
2024-03-06T18:28:42.701Z,6.76
2024-03-06T18:31:11.084Z,6.76
2024-03-06T18:33:39.686Z,6.74
2024-03-06T18:36:08.658Z,6.72
2024-03-06T18:38:39.083Z,6.72
2024-03-06T18:41:07.687Z,6.72
2024-03-06T18:43:36.280Z,6.71
2024-03-06T18:46:04.743Z,6.70
2024-03-06T18:48:33.184Z,6.69
2024-03-06T18:51:02.048Z,6.68
2024-03-06T18:53:30.637Z,6.68
2024-03-06T18:55:59.216Z,6.66
2024-03-06T18:58:29.089Z,6.65
2024-03-06T19:00:57.642Z,6.64
2024-03-06T19:03:26.091Z,6.62
2024-03-06T19:05:55.261Z,6.61
2024-03-06T19:08:24.210Z,6.61
2024-03-06T19:10:52.746Z,6.63
2024-03-06T19:13:21.245Z,6.62
2024-03-06T19:15:49.714Z,6.62
2024-03-06T19:18:18.248Z,6.61
2024-03-06T19:20:47.008Z,6.61
2024-03-06T19:23:15.823Z,6.60
2024-03-06T19:25:44.250Z,6.59
2024-03-06T19:28:13.296Z,6.58
2024-03-06T19:30:41.658Z,6.57
2024-03-06T19:33:23.865Z,6.56
2024-03-06T19:35:52.563Z,6.56
2024-03-06T19:38:21.052Z,6.56
2024-03-06T19:40:51.693Z,6.57
2024-03-06T19:43:20.103Z,6.58
2024-03-06T19:45:48.543Z,6.60
2024-03-06T19:48:18.544Z,6.61
2024-03-06T19:50:47.714Z,6.61
2024-03-06T19:53:17.011Z,6.59
2024-03-06T19:55:46.233Z,6.56
2024-03-06T19:58:14.963Z,6.56
2024-03-06T20:00:43.476Z,6.53
2024-03-06T20:03:11.871Z,6.51
2024-03-06T20:05:40.727Z,6.48
2024-03-06T20:08:09.230Z,6.46
2024-03-06T20:10:38.205Z,6.44
2024-03-06T20:13:06.934Z,6.43
2024-03-06T20:15:38.743Z,6.42
2024-03-06T20:18:07.545Z,6.40
2024-03-06T20:20:36.190Z,6.40
2024-03-06T20:23:13.758Z,6.38
2024-03-06T20:25:43.947Z,6.37
2024-03-06T20:28:12.332Z,6.36
2024-03-06T20:30:44.155Z,6.35
2024-03-06T20:33:13.369Z,6.34
2024-03-06T20:35:42.045Z,6.33
2024-03-06T20:38:16.650Z,6.32
2024-03-06T20:40:48.261Z,6.31
2024-03-06T20:43:17.686Z,6.29
2024-03-06T20:45:48.992Z,6.27
2024-03-06T20:48:17.519Z,6.25
2024-03-06T20:50:46.109Z,6.23
2024-03-06T20:53:14.649Z,6.23
2024-03-06T20:55:47.191Z,6.21
2024-03-06T20:58:15.701Z,6.23
2024-03-06T21:00:44.872Z,6.22
2024-03-06T21:03:17.421Z,6.21
2024-03-06T21:05:46.260Z,6.19
2024-03-06T21:08:14.864Z,6.18
2024-03-06T21:10:45.836Z,6.18
2024-03-06T21:13:14.688Z,6.18
2024-03-06T21:15:43.207Z,6.18
2024-03-06T21:18:12.952Z,6.19
2024-03-06T21:20:41.659Z,6.19
2024-03-06T21:23:10.166Z,6.19
2024-03-06T21:25:38.709Z,6.19
2024-03-06T21:28:08.578Z,6.20
2024-03-06T21:30:37.001Z,6.20
2024-03-06T21:33:06.953Z,6.21
2024-03-06T21:35:35.563Z,6.20
2024-03-06T21:38:04.653Z,6.20
2024-03-06T21:40:33.054Z,6.21
2024-03-06T21:43:04.978Z,6.22
2024-03-06T21:45:36.644Z,6.22
2024-03-06T21:48:05.748Z,6.24
2024-03-06T21:50:34.701Z,6.24
2024-03-06T21:53:03.450Z,6.24
2024-03-06T21:55:34.295Z,6.24
2024-03-06T21:58:02.620Z,6.24
2024-03-06T22:00:32.797Z,6.24
2024-03-06T22:03:01.561Z,6.26
2024-03-06T22:05:43.756Z,6.25
2024-03-06T22:08:12.275Z,6.25
2024-03-06T22:10:58.391Z,6.25
2024-03-06T22:13:26.821Z,6.25
2024-03-06T22:15:55.234Z,6.27
2024-03-06T22:18:23.615Z,6.26
2024-03-06T22:21:06.928Z,6.26
2024-03-06T22:23:35.946Z,6.28
2024-03-06T22:26:04.764Z,6.28
2024-03-06T22:28:33.140Z,6.29
2024-03-06T22:31:01.907Z,6.30
2024-03-06T22:33:44.697Z,6.30
2024-03-06T22:36:17.524Z,6.31
2024-03-06T22:38:46.694Z,6.32
2024-03-06T22:41:24.079Z,6.33
2024-03-06T22:43:52.577Z,6.34
2024-03-06T22:46:22.960Z,6.34
2024-03-06T22:49:05.210Z,6.36
2024-03-06T22:51:33.530Z,6.35
2024-03-06T22:54:02.295Z,6.35
2024-03-06T22:56:32.898Z,6.35
2024-03-06T22:59:01.953Z,6.33
2024-03-06T23:01:30.370Z,6.31
2024-03-06T23:03:58.704Z,6.27
2024-03-06T23:06:29.323Z,6.24
2024-03-06T23:08:57.835Z,6.23
2024-03-06T23:11:26.365Z,6.19
2024-03-06T23:13:54.881Z,6.18
2024-03-06T23:16:23.281Z,6.17
2024-03-06T23:19:05.505Z,6.14
2024-03-06T23:21:36.707Z,6.12
2024-03-06T23:24:05.323Z,6.07
2024-03-06T23:26:33.843Z,6.04
2024-03-06T23:29:02.464Z,6.03
2024-03-06T23:31:30.968Z,6.03
2024-03-06T23:33:59.387Z,6.02
2024-03-06T23:36:27.753Z,6.02
2024-03-06T23:38:56.155Z,6.03
2024-03-06T23:41:24.688Z,6.02
2024-03-06T23:44:06.956Z,6.00
2024-03-06T23:46:49.366Z,5.98
2024-03-06T23:49:20.615Z,5.94
2024-03-06T23:51:50.308Z,5.89
2024-03-06T23:54:20.665Z,5.83
2024-03-06T23:56:51.227Z,5.74
2024-03-06T23:59:20.415Z,5.65
